sensor_id;sensor_type;location;lat;lon;timestamp;temperature;humidity
10057;DHT22;5068;51.286;7.518;2022-07-19T00:01:10;15.60;51.50
10057;DHT22;5068;51.286;7.518;2022-07-19T00:02:44;15.60;51.60
10057;DHT22;5068;51.286;7.518;2022-07-19T00:04:17;15.60;51.80
10057;DHT22;5068;51.286;7.518;2022-07-19T00:05:50;15.60;52.10
10057;DHT22;5068;51.286;7.518;2022-07-19T00:07:23;15.50;52.00
10057;DHT22;5068;51.286;7.518;2022-07-19T00:08:56;15.50;52.00
10057;DHT22;5068;51.286;7.518;2022-07-19T00:10:32;15.50;52.00
10057;DHT22;5068;51.286;7.518;2022-07-19T00:12:08;15.40;52.10
10057;DHT22;5068;51.286;7.518;2022-07-19T00:13:45;15.40;52.00
10057;DHT22;5068;51.286;7.518;2022-07-19T00:15:20;15.40;52.10
10057;DHT22;5068;51.286;7.518;2022-07-19T00:16:53;15.40;52.20
10057;DHT22;5068;51.286;7.518;2022-07-19T00:18:26;15.30;52.20
10057;DHT22;5068;51.286;7.518;2022-07-19T00:20:00;15.30;52.20
10057;DHT22;5068;51.286;7.518;2022-07-19T00:21:32;15.30;52.30
10057;DHT22;5068;51.286;7.518;2022-07-19T00:23:07;15.20;52.40
10057;DHT22;5068;51.286;7.518;2022-07-19T00:24:40;15.20;52.40
10057;DHT22;5068;51.286;7.518;2022-07-19T00:26:14;15.20;52.40
10057;DHT22;5068;51.286;7.518;2022-07-19T00:27:48;15.20;52.50
10057;DHT22;5068;51.286;7.518;2022-07-19T00:29:22;15.10;52.40
10057;DHT22;5068;51.286;7.518;2022-07-19T00:30:56;15.10;52.60
10057;DHT22;5068;51.286;7.518;2022-07-19T00:32:30;15.10;52.70
10057;DHT22;5068;51.286;7.518;2022-07-19T00:34:03;15.10;52.80
10057;DHT22;5068;51.286;7.518;2022-07-19T00:35:37;15.00;52.80
10057;DHT22;5068;51.286;7.518;2022-07-19T00:37:11;15.00;52.90
10057;DHT22;5068;51.286;7.518;2022-07-19T00:38:45;14.90;52.90
10057;DHT22;5068;51.286;7.518;2022-07-19T00:40:21;14.90;53.10
10057;DHT22;5068;51.286;7.518;2022-07-19T00:41:55;14.90;53.10
10057;DHT22;5068;51.286;7.518;2022-07-19T00:43:29;14.90;53.10
10057;DHT22;5068;51.286;7.518;2022-07-19T00:45:04;14.80;53.10
10057;DHT22;5068;51.286;7.518;2022-07-19T00:46:38;14.80;53.30
10057;DHT22;5068;51.286;7.518;2022-07-19T00:48:12;14.80;53.30
10057;DHT22;5068;51.286;7.518;2022-07-19T00:49:45;14.70;53.30
10057;DHT22;5068;51.286;7.518;2022-07-19T00:51:19;14.70;53.40
10057;DHT22;5068;51.286;7.518;2022-07-19T00:52:55;14.60;53.40
10057;DHT22;5068;51.286;7.518;2022-07-19T00:54:34;14.60;53.50
10057;DHT22;5068;51.286;7.518;2022-07-19T00:56:09;14.60;53.70
10057;DHT22;5068;51.286;7.518;2022-07-19T00:57:43;14.60;53.70
10057;DHT22;5068;51.286;7.518;2022-07-19T00:59:18;14.60;53.80
10057;DHT22;5068;51.286;7.518;2022-07-19T01:00:54;14.50;53.80
10057;DHT22;5068;51.286;7.518;2022-07-19T01:02:29;14.50;53.90
10057;DHT22;5068;51.286;7.518;2022-07-19T01:04:05;14.50;54.00
10057;DHT22;5068;51.286;7.518;2022-07-19T01:05:39;14.40;53.90
10057;DHT22;5068;51.286;7.518;2022-07-19T01:07:13;14.40;54.00
10057;DHT22;5068;51.286;7.518;2022-07-19T01:08:46;14.40;54.10
10057;DHT22;5068;51.286;7.518;2022-07-19T01:10:20;14.40;54.20
10057;DHT22;5068;51.286;7.518;2022-07-19T01:11:55;14.30;54.20
10057;DHT22;5068;51.286;7.518;2022-07-19T01:13:30;14.30;54.30
10057;DHT22;5068;51.286;7.518;2022-07-19T01:15:15;14.30;54.40
10057;DHT22;5068;51.286;7.518;2022-07-19T01:16:52;14.30;54.60
10057;DHT22;5068;51.286;7.518;2022-07-19T01:18:26;14.20;54.30
10057;DHT22;5068;51.286;7.518;2022-07-19T01:19:59;14.20;54.30
10057;DHT22;5068;51.286;7.518;2022-07-19T01:21:34;14.20;54.40
10057;DHT22;5068;51.286;7.518;2022-07-19T01:23:08;14.20;54.50
10057;DHT22;5068;51.286;7.518;2022-07-19T01:24:41;14.10;54.40
10057;DHT22;5068;51.286;7.518;2022-07-19T01:26:14;14.10;54.60
10057;DHT22;5068;51.286;7.518;2022-07-19T01:27:48;14.10;54.70
10057;DHT22;5068;51.286;7.518;2022-07-19T01:29:22;14.10;54.70
10057;DHT22;5068;51.286;7.518;2022-07-19T01:30:56;14.00;54.70
10057;DHT22;5068;51.286;7.518;2022-07-19T01:32:30;14.00;54.70
10057;DHT22;5068;51.286;7.518;2022-07-19T01:34:04;14.00;54.80
10057;DHT22;5068;51.286;7.518;2022-07-19T01:35:38;14.00;54.90
10057;DHT22;5068;51.286;7.518;2022-07-19T01:37:12;13.90;54.90
10057;DHT22;5068;51.286;7.518;2022-07-19T01:38:47;13.90;55.00
10057;DHT22;5068;51.286;7.518;2022-07-19T01:40:20;13.90;55.00
10057;DHT22;5068;51.286;7.518;2022-07-19T01:41:54;13.90;55.10
10057;DHT22;5068;51.286;7.518;2022-07-19T01:43:28;13.80;55.10
10057;DHT22;5068;51.286;7.518;2022-07-19T01:45:02;13.80;55.20
10057;DHT22;5068;51.286;7.518;2022-07-19T01:46:36;13.80;55.30
10057;DHT22;5068;51.286;7.518;2022-07-19T01:48:09;13.80;55.40
10057;DHT22;5068;51.286;7.518;2022-07-19T01:49:43;13.70;55.40
10057;DHT22;5068;51.286;7.518;2022-07-19T01:51:17;13.70;55.40
10057;DHT22;5068;51.286;7.518;2022-07-19T01:52:51;13.70;55.40
10057;DHT22;5068;51.286;7.518;2022-07-19T01:54:25;13.70;55.40
10057;DHT22;5068;51.286;7.518;2022-07-19T01:55:58;13.70;55.50
10057;DHT22;5068;51.286;7.518;2022-07-19T01:57:32;13.60;55.40
10057;DHT22;5068;51.286;7.518;2022-07-19T01:59:06;13.60;55.50
10057;DHT22;5068;51.286;7.518;2022-07-19T02:00:39;13.50;55.50
10057;DHT22;5068;51.286;7.518;2022-07-19T02:02:13;13.50;55.60
10057;DHT22;5068;51.286;7.518;2022-07-19T02:03:47;13.50;55.70
10057;DHT22;5068;51.286;7.518;2022-07-19T02:05:22;13.50;56.40
10057;DHT22;5068;51.286;7.518;2022-07-19T02:06:56;13.40;56.50
10057;DHT22;5068;51.286;7.518;2022-07-19T02:08:31;13.40;55.90
10057;DHT22;5068;51.286;7.518;2022-07-19T02:10:05;13.40;56.10
10057;DHT22;5068;51.286;7.518;2022-07-19T02:11:40;13.40;56.10
10057;DHT22;5068;51.286;7.518;2022-07-19T02:13:13;13.30;56.10
10057;DHT22;5068;51.286;7.518;2022-07-19T02:14:47;13.30;56.20
10057;DHT22;5068;51.286;7.518;2022-07-19T02:16:20;13.30;56.20
10057;DHT22;5068;51.286;7.518;2022-07-19T02:17:53;13.30;56.30
10057;DHT22;5068;51.286;7.518;2022-07-19T02:19:27;13.30;56.40
10057;DHT22;5068;51.286;7.518;2022-07-19T02:21:01;13.30;56.40
10057;DHT22;5068;51.286;7.518;2022-07-19T02:22:35;13.20;56.40
10057;DHT22;5068;51.286;7.518;2022-07-19T02:24:09;13.20;56.40
10057;DHT22;5068;51.286;7.518;2022-07-19T02:25:42;13.20;56.50
10057;DHT22;5068;51.286;7.518;2022-07-19T02:27:16;13.20;56.50
10057;DHT22;5068;51.286;7.518;2022-07-19T02:28:49;13.20;56.60
10057;DHT22;5068;51.286;7.518;2022-07-19T02:30:23;13.20;56.60
10057;DHT22;5068;51.286;7.518;2022-07-19T02:31:56;13.10;56.60
10057;DHT22;5068;51.286;7.518;2022-07-19T02:33:29;13.10;56.70
10057;DHT22;5068;51.286;7.518;2022-07-19T02:35:03;13.10;56.80
10057;DHT22;5068;51.286;7.518;2022-07-19T02:36:37;13.10;56.80
10057;DHT22;5068;51.286;7.518;2022-07-19T02:38:11;13.10;56.90
10057;DHT22;5068;51.286;7.518;2022-07-19T02:39:46;13.00;56.80
10057;DHT22;5068;51.286;7.518;2022-07-19T02:41:19;13.00;56.90
10057;DHT22;5068;51.286;7.518;2022-07-19T02:42:52;13.00;56.90
10057;DHT22;5068;51.286;7.518;2022-07-19T02:44:26;13.00;57.00
10057;DHT22;5068;51.286;7.518;2022-07-19T02:46:00;13.00;57.00
10057;DHT22;5068;51.286;7.518;2022-07-19T02:47:33;13.00;57.00
10057;DHT22;5068;51.286;7.518;2022-07-19T02:49:08;13.00;57.00
10057;DHT22;5068;51.286;7.518;2022-07-19T02:50:42;12.90;57.10
10057;DHT22;5068;51.286;7.518;2022-07-19T02:52:15;12.90;57.20
10057;DHT22;5068;51.286;7.518;2022-07-19T02:53:49;12.90;57.20
10057;DHT22;5068;51.286;7.518;2022-07-19T02:55:23;12.90;57.20
10057;DHT22;5068;51.286;7.518;2022-07-19T02:56:57;12.90;57.50
10057;DHT22;5068;51.286;7.518;2022-07-19T02:58:31;12.90;57.40
10057;DHT22;5068;51.286;7.518;2022-07-19T03:00:22;12.90;57.40
10057;DHT22;5068;51.286;7.518;2022-07-19T03:01:55;12.80;57.80
10057;DHT22;5068;51.286;7.518;2022-07-19T03:03:29;12.80;57.30
10057;DHT22;5068;51.286;7.518;2022-07-19T03:05:19;12.80;57.40
10057;DHT22;5068;51.286;7.518;2022-07-19T03:06:52;12.80;57.50
10057;DHT22;5068;51.286;7.518;2022-07-19T03:08:25;12.80;57.50
10057;DHT22;5068;51.286;7.518;2022-07-19T03:09:58;12.70;57.50
10057;DHT22;5068;51.286;7.518;2022-07-19T03:11:34;12.70;57.60
10057;DHT22;5068;51.286;7.518;2022-07-19T03:13:07;12.70;57.70
10057;DHT22;5068;51.286;7.518;2022-07-19T03:14:41;12.70;57.70
10057;DHT22;5068;51.286;7.518;2022-07-19T03:16:15;12.70;57.70
10057;DHT22;5068;51.286;7.518;2022-07-19T03:17:48;12.70;57.80
10057;DHT22;5068;51.286;7.518;2022-07-19T03:19:22;12.70;57.80
10057;DHT22;5068;51.286;7.518;2022-07-19T03:20:57;12.60;57.70
10057;DHT22;5068;51.286;7.518;2022-07-19T03:22:31;12.60;57.80
10057;DHT22;5068;51.286;7.518;2022-07-19T03:24:05;12.60;57.70
10057;DHT22;5068;51.286;7.518;2022-07-19T03:25:39;12.60;57.80
10057;DHT22;5068;51.286;7.518;2022-07-19T03:27:13;12.60;57.90
10057;DHT22;5068;51.286;7.518;2022-07-19T03:28:47;12.60;58.00
10057;DHT22;5068;51.286;7.518;2022-07-19T03:30:21;12.50;57.90
10057;DHT22;5068;51.286;7.518;2022-07-19T03:31:54;12.50;57.90
10057;DHT22;5068;51.286;7.518;2022-07-19T03:33:28;12.50;57.90
10057;DHT22;5068;51.286;7.518;2022-07-19T03:35:02;12.50;58.00
10057;DHT22;5068;51.286;7.518;2022-07-19T03:36:35;12.50;58.10
10057;DHT22;5068;51.286;7.518;2022-07-19T03:38:10;12.50;58.10
10057;DHT22;5068;51.286;7.518;2022-07-19T03:39:44;12.50;58.20
10057;DHT22;5068;51.286;7.518;2022-07-19T03:41:17;12.40;58.10
10057;DHT22;5068;51.286;7.518;2022-07-19T03:42:51;12.40;58.10
10057;DHT22;5068;51.286;7.518;2022-07-19T03:44:24;12.40;58.90
10057;DHT22;5068;51.286;7.518;2022-07-19T03:45:58;12.40;58.20
10057;DHT22;5068;51.286;7.518;2022-07-19T03:47:31;12.40;58.30
10057;DHT22;5068;51.286;7.518;2022-07-19T03:49:04;12.40;58.40
10057;DHT22;5068;51.286;7.518;2022-07-19T03:50:37;12.40;58.40
10057;DHT22;5068;51.286;7.518;2022-07-19T03:52:10;12.30;58.40
10057;DHT22;5068;51.286;7.518;2022-07-19T03:53:49;12.30;58.40
10057;DHT22;5068;51.286;7.518;2022-07-19T03:55:23;12.30;58.40
10057;DHT22;5068;51.286;7.518;2022-07-19T03:56:55;12.30;58.50
10057;DHT22;5068;51.286;7.518;2022-07-19T03:58:30;12.30;58.60
10057;DHT22;5068;51.286;7.518;2022-07-19T04:00:05;12.30;58.70
10057;DHT22;5068;51.286;7.518;2022-07-19T04:01:46;12.30;58.80
10057;DHT22;5068;51.286;7.518;2022-07-19T04:03:20;12.20;58.60
10057;DHT22;5068;51.286;7.518;2022-07-19T04:04:54;12.20;58.80
10057;DHT22;5068;51.286;7.518;2022-07-19T04:06:27;12.20;58.80
10057;DHT22;5068;51.286;7.518;2022-07-19T04:08:01;12.20;58.80
10057;DHT22;5068;51.286;7.518;2022-07-19T04:09:34;12.20;58.90
10057;DHT22;5068;51.286;7.518;2022-07-19T04:11:07;12.20;59.00
10057;DHT22;5068;51.286;7.518;2022-07-19T04:12:41;12.20;59.10
10057;DHT22;5068;51.286;7.518;2022-07-19T04:14:16;12.20;59.10
10057;DHT22;5068;51.286;7.518;2022-07-19T04:15:49;12.20;59.20
10057;DHT22;5068;51.286;7.518;2022-07-19T04:17:23;12.20;59.10
10057;DHT22;5068;51.286;7.518;2022-07-19T04:18:57;12.20;59.20
10057;DHT22;5068;51.286;7.518;2022-07-19T04:20:30;12.20;59.30
10057;DHT22;5068;51.286;7.518;2022-07-19T04:22:03;12.20;59.30
10057;DHT22;5068;51.286;7.518;2022-07-19T04:23:36;12.20;59.30
10057;DHT22;5068;51.286;7.518;2022-07-19T04:25:09;12.20;59.40
10057;DHT22;5068;51.286;7.518;2022-07-19T04:26:43;12.10;59.40
10057;DHT22;5068;51.286;7.518;2022-07-19T04:28:17;12.20;59.60
10057;DHT22;5068;51.286;7.518;2022-07-19T04:29:51;12.10;59.50
10057;DHT22;5068;51.286;7.518;2022-07-19T04:31:25;12.20;59.70
10057;DHT22;5068;51.286;7.518;2022-07-19T04:32:59;12.20;59.70
10057;DHT22;5068;51.286;7.518;2022-07-19T04:34:32;12.20;59.70
10057;DHT22;5068;51.286;7.518;2022-07-19T04:36:06;12.20;59.70
10057;DHT22;5068;51.286;7.518;2022-07-19T04:37:40;12.20;59.80
10057;DHT22;5068;51.286;7.518;2022-07-19T04:39:14;12.20;59.90
10057;DHT22;5068;51.286;7.518;2022-07-19T04:40:47;12.20;59.90
10057;DHT22;5068;51.286;7.518;2022-07-19T04:42:28;12.20;60.00
10057;DHT22;5068;51.286;7.518;2022-07-19T04:44:01;12.20;59.90
10057;DHT22;5068;51.286;7.518;2022-07-19T04:45:36;12.20;60.80
10057;DHT22;5068;51.286;7.518;2022-07-19T04:47:11;12.20;60.10
10057;DHT22;5068;51.286;7.518;2022-07-19T04:48:44;12.20;60.10
10057;DHT22;5068;51.286;7.518;2022-07-19T04:50:18;12.20;60.10
10057;DHT22;5068;51.286;7.518;2022-07-19T04:51:52;12.20;60.30
10057;DHT22;5068;51.286;7.518;2022-07-19T04:53:25;12.20;60.30
10057;DHT22;5068;51.286;7.518;2022-07-19T04:54:59;12.20;60.40
10057;DHT22;5068;51.286;7.518;2022-07-19T04:56:32;12.20;60.40
10057;DHT22;5068;51.286;7.518;2022-07-19T04:58:06;12.30;60.50
10057;DHT22;5068;51.286;7.518;2022-07-19T04:59:39;12.30;60.60
10057;DHT22;5068;51.286;7.518;2022-07-19T05:01:15;12.30;60.60
10057;DHT22;5068;51.286;7.518;2022-07-19T05:02:48;12.30;60.80
10057;DHT22;5068;51.286;7.518;2022-07-19T05:04:22;12.20;60.60
10057;DHT22;5068;51.286;7.518;2022-07-19T05:05:55;12.30;60.80
10057;DHT22;5068;51.286;7.518;2022-07-19T05:07:29;12.40;61.00
10057;DHT22;5068;51.286;7.518;2022-07-19T05:09:03;12.40;61.10
10057;DHT22;5068;51.286;7.518;2022-07-19T05:10:35;12.40;61.10
10057;DHT22;5068;51.286;7.518;2022-07-19T05:12:09;12.40;61.20
10057;DHT22;5068;51.286;7.518;2022-07-19T05:13:42;12.40;61.30
10057;DHT22;5068;51.286;7.518;2022-07-19T05:15:16;12.50;61.40
10057;DHT22;5068;51.286;7.518;2022-07-19T05:16:51;12.50;61.40
10057;DHT22;5068;51.286;7.518;2022-07-19T05:18:25;12.50;62.50
10057;DHT22;5068;51.286;7.518;2022-07-19T05:19:59;12.60;61.80
10057;DHT22;5068;51.286;7.518;2022-07-19T05:21:33;12.60;62.00
10057;DHT22;5068;51.286;7.518;2022-07-19T05:23:07;12.60;62.10
10057;DHT22;5068;51.286;7.518;2022-07-19T05:24:41;12.60;62.10
10057;DHT22;5068;51.286;7.518;2022-07-19T05:26:14;12.70;62.20
10057;DHT22;5068;51.286;7.518;2022-07-19T05:27:48;12.80;62.30
10057;DHT22;5068;51.286;7.518;2022-07-19T05:29:22;12.80;62.30
10057;DHT22;5068;51.286;7.518;2022-07-19T05:30:55;12.80;62.20
10057;DHT22;5068;51.286;7.518;2022-07-19T05:32:31;12.90;62.20
10057;DHT22;5068;51.286;7.518;2022-07-19T05:34:05;12.90;62.50
10057;DHT22;5068;51.286;7.518;2022-07-19T05:35:38;13.00;62.30
10057;DHT22;5068;51.286;7.518;2022-07-19T05:37:12;13.00;62.30
10057;DHT22;5068;51.286;7.518;2022-07-19T05:38:45;13.10;62.30
10057;DHT22;5068;51.286;7.518;2022-07-19T05:40:18;13.10;62.40
10057;DHT22;5068;51.286;7.518;2022-07-19T05:41:51;13.20;62.30
10057;DHT22;5068;51.286;7.518;2022-07-19T05:43:25;13.30;62.50
10057;DHT22;5068;51.286;7.518;2022-07-19T05:44:59;13.30;62.50
10057;DHT22;5068;51.286;7.518;2022-07-19T05:46:32;13.40;62.50
10057;DHT22;5068;51.286;7.518;2022-07-19T05:48:16;13.40;62.30
10057;DHT22;5068;51.286;7.518;2022-07-19T05:49:49;13.50;62.40
10057;DHT22;5068;51.286;7.518;2022-07-19T05:51:22;13.60;62.50
10057;DHT22;5068;51.286;7.518;2022-07-19T05:52:56;13.60;62.50
10057;DHT22;5068;51.286;7.518;2022-07-19T05:54:30;13.70;62.50
10057;DHT22;5068;51.286;7.518;2022-07-19T05:56:05;13.80;62.50
10057;DHT22;5068;51.286;7.518;2022-07-19T05:57:39;13.80;62.40
10057;DHT22;5068;51.286;7.518;2022-07-19T05:59:12;13.90;62.50
10057;DHT22;5068;51.286;7.518;2022-07-19T06:00:46;14.00;62.30
10057;DHT22;5068;51.286;7.518;2022-07-19T06:02:33;14.00;62.20
10057;DHT22;5068;51.286;7.518;2022-07-19T06:04:08;14.10;62.30
10057;DHT22;5068;51.286;7.518;2022-07-19T06:05:42;14.20;62.30
10057;DHT22;5068;51.286;7.518;2022-07-19T06:07:15;14.20;62.20
10057;DHT22;5068;51.286;7.518;2022-07-19T06:08:49;14.30;62.50
10057;DHT22;5068;51.286;7.518;2022-07-19T06:10:23;14.40;62.50
10057;DHT22;5068;51.286;7.518;2022-07-19T06:11:57;14.50;62.40
10057;DHT22;5068;51.286;7.518;2022-07-19T06:13:30;14.50;62.00
10057;DHT22;5068;51.286;7.518;2022-07-19T06:15:03;14.60;62.00
10057;DHT22;5068;51.286;7.518;2022-07-19T06:16:39;14.70;62.20
10057;DHT22;5068;51.286;7.518;2022-07-19T06:18:13;14.80;62.40
10057;DHT22;5068;51.286;7.518;2022-07-19T06:19:48;14.90;62.60
10057;DHT22;5068;51.286;7.518;2022-07-19T06:21:21;14.90;62.50
10057;DHT22;5068;51.286;7.518;2022-07-19T06:22:55;15.00;62.10
10057;DHT22;5068;51.286;7.518;2022-07-19T06:24:29;15.10;61.90
10057;DHT22;5068;51.286;7.518;2022-07-19T06:26:03;15.20;61.90
10057;DHT22;5068;51.286;7.518;2022-07-19T06:27:37;15.30;62.10
10057;DHT22;5068;51.286;7.518;2022-07-19T06:29:11;15.40;61.80
10057;DHT22;5068;51.286;7.518;2022-07-19T06:30:44;15.40;61.40
10057;DHT22;5068;51.286;7.518;2022-07-19T06:32:18;15.50;61.00
10057;DHT22;5068;51.286;7.518;2022-07-19T06:33:52;15.60;60.60
10057;DHT22;5068;51.286;7.518;2022-07-19T06:35:27;15.70;60.00
10057;DHT22;5068;51.286;7.518;2022-07-19T06:37:01;15.80;59.50
10057;DHT22;5068;51.286;7.518;2022-07-19T06:38:35;15.90;59.20
10057;DHT22;5068;51.286;7.518;2022-07-19T06:40:09;16.00;59.30
10057;DHT22;5068;51.286;7.518;2022-07-19T06:41:43;16.10;59.50
10057;DHT22;5068;51.286;7.518;2022-07-19T06:43:22;16.20;59.20
10057;DHT22;5068;51.286;7.518;2022-07-19T06:44:56;16.30;59.20
10057;DHT22;5068;51.286;7.518;2022-07-19T06:46:31;16.40;58.80
10057;DHT22;5068;51.286;7.518;2022-07-19T06:48:05;16.50;58.80
10057;DHT22;5068;51.286;7.518;2022-07-19T06:49:39;16.60;59.10
10057;DHT22;5068;51.286;7.518;2022-07-19T06:51:14;16.70;58.70
10057;DHT22;5068;51.286;7.518;2022-07-19T06:52:48;16.80;58.30
10057;DHT22;5068;51.286;7.518;2022-07-19T06:54:21;16.90;58.00
10057;DHT22;5068;51.286;7.518;2022-07-19T06:55:55;17.00;57.90
10057;DHT22;5068;51.286;7.518;2022-07-19T06:57:28;17.10;58.10
10057;DHT22;5068;51.286;7.518;2022-07-19T06:59:02;17.20;57.70
10057;DHT22;5068;51.286;7.518;2022-07-19T07:00:35;17.30;57.50
10057;DHT22;5068;51.286;7.518;2022-07-19T07:02:09;17.50;57.30
10057;DHT22;5068;51.286;7.518;2022-07-19T07:03:42;17.50;57.30
10057;DHT22;5068;51.286;7.518;2022-07-19T07:05:16;17.70;57.20
10057;DHT22;5068;51.286;7.518;2022-07-19T07:06:51;17.80;56.90
10057;DHT22;5068;51.286;7.518;2022-07-19T07:08:24;17.90;56.60
10057;DHT22;5068;51.286;7.518;2022-07-19T07:09:58;18.00;56.40
10057;DHT22;5068;51.286;7.518;2022-07-19T07:11:40;18.10;56.40
10057;DHT22;5068;51.286;7.518;2022-07-19T07:13:14;18.20;56.40
10057;DHT22;5068;51.286;7.518;2022-07-19T07:14:47;18.40;56.10
10057;DHT22;5068;51.286;7.518;2022-07-19T07:16:21;18.50;56.10
10057;DHT22;5068;51.286;7.518;2022-07-19T07:17:55;18.50;55.80
10057;DHT22;5068;51.286;7.518;2022-07-19T07:19:28;18.70;55.60
10057;DHT22;5068;51.286;7.518;2022-07-19T07:21:02;18.80;55.50
10057;DHT22;5068;51.286;7.518;2022-07-19T07:22:37;18.90;55.20
10057;DHT22;5068;51.286;7.518;2022-07-19T07:24:10;19.10;55.10
10057;DHT22;5068;51.286;7.518;2022-07-19T07:25:45;19.20;55.00
10057;DHT22;5068;51.286;7.518;2022-07-19T07:27:18;19.30;54.80
10057;DHT22;5068;51.286;7.518;2022-07-19T07:28:54;19.40;54.50
10057;DHT22;5068;51.286;7.518;2022-07-19T07:30:28;19.50;54.40
10057;DHT22;5068;51.286;7.518;2022-07-19T07:32:02;19.60;54.30
10057;DHT22;5068;51.286;7.518;2022-07-19T07:33:36;19.80;54.40
10057;DHT22;5068;51.286;7.518;2022-07-19T07:35:10;19.90;54.00
10057;DHT22;5068;51.286;7.518;2022-07-19T07:36:44;20.00;54.30
10057;DHT22;5068;51.286;7.518;2022-07-19T07:38:19;20.10;54.20
10057;DHT22;5068;51.286;7.518;2022-07-19T07:39:52;20.30;54.20
10057;DHT22;5068;51.286;7.518;2022-07-19T07:41:26;20.40;54.40
10057;DHT22;5068;51.286;7.518;2022-07-19T07:43:11;20.60;54.50
10057;DHT22;5068;51.286;7.518;2022-07-19T07:44:45;20.70;53.90
10057;DHT22;5068;51.286;7.518;2022-07-19T07:46:18;20.90;53.70
10057;DHT22;5068;51.286;7.518;2022-07-19T07:47:52;21.00;53.90
10057;DHT22;5068;51.286;7.518;2022-07-19T07:49:26;21.10;54.60
10057;DHT22;5068;51.286;7.518;2022-07-19T07:50:59;21.30;55.00
10057;DHT22;5068;51.286;7.518;2022-07-19T07:52:53;21.40;55.00
10057;DHT22;5068;51.286;7.518;2022-07-19T07:54:27;21.60;55.10
10057;DHT22;5068;51.286;7.518;2022-07-19T07:56:02;21.70;55.60
10057;DHT22;5068;51.286;7.518;2022-07-19T07:57:41;21.80;54.70
10057;DHT22;5068;51.286;7.518;2022-07-19T07:59:15;22.00;54.60
10057;DHT22;5068;51.286;7.518;2022-07-19T08:00:48;22.10;54.20
10057;DHT22;5068;51.286;7.518;2022-07-19T08:02:22;22.20;53.90
10057;DHT22;5068;51.286;7.518;2022-07-19T08:03:56;22.40;53.90
10057;DHT22;5068;51.286;7.518;2022-07-19T08:05:31;22.50;54.00
10057;DHT22;5068;51.286;7.518;2022-07-19T08:07:06;22.60;50.30
10057;DHT22;5068;51.286;7.518;2022-07-19T08:08:39;22.70;50.10
10057;DHT22;5068;51.286;7.518;2022-07-19T08:10:14;22.80;50.70
10057;DHT22;5068;51.286;7.518;2022-07-19T08:11:48;23.00;47.30
10057;DHT22;5068;51.286;7.518;2022-07-19T08:13:22;23.10;49.10
10057;DHT22;5068;51.286;7.518;2022-07-19T08:14:56;23.30;49.50
10057;DHT22;5068;51.286;7.518;2022-07-19T08:16:30;23.40;46.30
10057;DHT22;5068;51.286;7.518;2022-07-19T08:18:04;23.60;46.00
10057;DHT22;5068;51.286;7.518;2022-07-19T08:19:38;23.70;45.00
10057;DHT22;5068;51.286;7.518;2022-07-19T08:21:11;23.90;43.80
10057;DHT22;5068;51.286;7.518;2022-07-19T08:22:45;24.00;45.10
10057;DHT22;5068;51.286;7.518;2022-07-19T08:24:18;24.20;45.70
10057;DHT22;5068;51.286;7.518;2022-07-19T08:25:53;24.30;45.70
10057;DHT22;5068;51.286;7.518;2022-07-19T08:27:27;24.50;44.60
10057;DHT22;5068;51.286;7.518;2022-07-19T08:29:01;24.70;43.70
10057;DHT22;5068;51.286;7.518;2022-07-19T08:30:34;24.80;42.50
10057;DHT22;5068;51.286;7.518;2022-07-19T08:32:28;25.00;41.70
10057;DHT22;5068;51.286;7.518;2022-07-19T08:34:01;25.10;40.10
10057;DHT22;5068;51.286;7.518;2022-07-19T08:35:36;25.30;40.00
10057;DHT22;5068;51.286;7.518;2022-07-19T08:37:09;25.50;39.40
10057;DHT22;5068;51.286;7.518;2022-07-19T08:38:43;25.60;38.30
10057;DHT22;5068;51.286;7.518;2022-07-19T08:40:17;25.80;34.00
10057;DHT22;5068;51.286;7.518;2022-07-19T08:41:52;26.00;34.60
10057;DHT22;5068;51.286;7.518;2022-07-19T08:43:26;26.10;36.20
10057;DHT22;5068;51.286;7.518;2022-07-19T08:46:36;26.50;34.30
10057;DHT22;5068;51.286;7.518;2022-07-19T08:48:11;26.70;33.90
10057;DHT22;5068;51.286;7.518;2022-07-19T08:49:47;26.80;33.60
10057;DHT22;5068;51.286;7.518;2022-07-19T08:51:21;26.90;34.00
10057;DHT22;5068;51.286;7.518;2022-07-19T08:52:55;27.10;32.80
10057;DHT22;5068;51.286;7.518;2022-07-19T08:54:31;27.20;32.10
10057;DHT22;5068;51.286;7.518;2022-07-19T08:56:06;27.40;32.10
10057;DHT22;5068;51.286;7.518;2022-07-19T08:57:55;27.60;31.30
10057;DHT22;5068;51.286;7.518;2022-07-19T08:59:33;27.70;30.90
10057;DHT22;5068;51.286;7.518;2022-07-19T09:01:06;27.90;31.00
10057;DHT22;5068;51.286;7.518;2022-07-19T09:02:40;28.00;30.40
10057;DHT22;5068;51.286;7.518;2022-07-19T09:04:24;28.20;29.70
10057;DHT22;5068;51.286;7.518;2022-07-19T09:06:03;28.30;29.60
10057;DHT22;5068;51.286;7.518;2022-07-19T09:07:38;28.40;29.60
10057;DHT22;5068;51.286;7.518;2022-07-19T09:09:13;28.60;29.30
10057;DHT22;5068;51.286;7.518;2022-07-19T09:10:49;28.70;29.30
10057;DHT22;5068;51.286;7.518;2022-07-19T09:12:36;28.80;28.80
10057;DHT22;5068;51.286;7.518;2022-07-19T09:14:33;29.00;28.60
10057;DHT22;5068;51.286;7.518;2022-07-19T09:16:08;29.10;28.00
10057;DHT22;5068;51.286;7.518;2022-07-19T09:17:41;29.30;27.90
10057;DHT22;5068;51.286;7.518;2022-07-19T09:19:15;29.40;27.70
10057;DHT22;5068;51.286;7.518;2022-07-19T09:20:50;29.50;27.60
10057;DHT22;5068;51.286;7.518;2022-07-19T09:22:25;29.60;27.30
10057;DHT22;5068;51.286;7.518;2022-07-19T09:24:02;29.70;27.60
10057;DHT22;5068;51.286;7.518;2022-07-19T09:25:37;29.90;27.70
10057;DHT22;5068;51.286;7.518;2022-07-19T09:27:14;29.90;27.40
10057;DHT22;5068;51.286;7.518;2022-07-19T09:28:50;30.10;27.20
10057;DHT22;5068;51.286;7.518;2022-07-19T09:30:35;30.20;26.30
10057;DHT22;5068;51.286;7.518;2022-07-19T09:32:19;30.30;26.30
10057;DHT22;5068;51.286;7.518;2022-07-19T09:33:54;30.40;26.20
10057;DHT22;5068;51.286;7.518;2022-07-19T09:35:35;30.50;25.90
10057;DHT22;5068;51.286;7.518;2022-07-19T09:37:16;30.60;25.30
10057;DHT22;5068;51.286;7.518;2022-07-19T09:38:51;30.70;25.50
10057;DHT22;5068;51.286;7.518;2022-07-19T09:40:30;30.80;25.30
10057;DHT22;5068;51.286;7.518;2022-07-19T09:42:05;30.90;24.80
10057;DHT22;5068;51.286;7.518;2022-07-19T09:43:54;31.00;24.80
10057;DHT22;5068;51.286;7.518;2022-07-19T09:45:31;31.00;24.10
10057;DHT22;5068;51.286;7.518;2022-07-19T09:47:05;31.10;24.30
10057;DHT22;5068;51.286;7.518;2022-07-19T09:48:43;31.20;24.40
10057;DHT22;5068;51.286;7.518;2022-07-19T09:50:19;31.30;24.10
10057;DHT22;5068;51.286;7.518;2022-07-19T09:51:54;31.40;23.90
10057;DHT22;5068;51.286;7.518;2022-07-19T09:53:29;31.50;24.30
10057;DHT22;5068;51.286;7.518;2022-07-19T09:55:04;31.60;24.10
10057;DHT22;5068;51.286;7.518;2022-07-19T09:56:40;31.60;23.40
10057;DHT22;5068;51.286;7.518;2022-07-19T09:58:15;31.70;23.20
10057;DHT22;5068;51.286;7.518;2022-07-19T09:59:52;31.80;23.10
10057;DHT22;5068;51.286;7.518;2022-07-19T10:01:30;31.80;22.80
10057;DHT22;5068;51.286;7.518;2022-07-19T10:03:04;31.90;23.50
10057;DHT22;5068;51.286;7.518;2022-07-19T10:04:40;32.00;22.70
10057;DHT22;5068;51.286;7.518;2022-07-19T10:06:14;32.10;23.40
10057;DHT22;5068;51.286;7.518;2022-07-19T10:07:48;32.10;22.80
10057;DHT22;5068;51.286;7.518;2022-07-19T10:09:22;32.20;22.70